createdAt,value
2023-05-19T00:00:19.685Z,186.65
2023-05-19T00:01:19.719Z,177.18
2023-05-19T00:02:19.765Z,200.53
2023-05-19T00:03:19.960Z,187.01
2023-05-19T00:04:19.827Z,182.95
2023-05-19T00:05:19.974Z,202.37
2023-05-19T00:06:20.023Z,194.95
2023-05-19T00:07:19.970Z,192.97
2023-05-19T00:08:20.051Z,178.10
2023-05-19T00:09:20.061Z,180.51
2023-05-19T00:10:20.171Z,191.30
2023-05-19T00:11:20.143Z,206.66
2023-05-19T00:12:20.214Z,215.92
2023-05-19T00:13:20.204Z,219.22
2023-05-19T00:14:20.207Z,209.51
2023-05-19T00:15:20.201Z,223.45
2023-05-19T00:16:20.290Z,232.95
2023-05-19T00:17:20.257Z,206.08
2023-05-19T00:18:20.317Z,174.09
2023-05-19T00:19:20.402Z,173.93
2023-05-19T00:20:20.356Z,186.28
2023-05-19T00:21:20.293Z,187.10
2023-05-19T00:22:20.292Z,201.70
2023-05-19T00:23:20.335Z,225.44
2023-05-19T00:24:20.328Z,250.87
2023-05-19T00:25:20.331Z,246.67
2023-05-19T00:26:20.302Z,233.55
2023-05-19T00:27:20.337Z,236.46
2023-05-19T00:28:20.379Z,222.74
2023-05-19T00:29:20.459Z,238.59
2023-05-19T00:30:20.424Z,240.76
2023-05-19T00:31:20.456Z,246.45
2023-05-19T00:32:20.425Z,246.49
2023-05-19T00:33:20.425Z,249.17
2023-05-19T00:34:20.402Z,249.30
2023-05-19T00:35:20.377Z,251.98
2023-05-19T00:36:20.382Z,262.22
2023-05-19T00:37:20.349Z,285.43
2023-05-19T00:38:20.381Z,308.92
2023-05-19T00:39:20.392Z,280.65
2023-05-19T00:40:20.389Z,252.02
2023-05-19T00:41:20.343Z,231.76
2023-05-19T00:42:20.327Z,242.20
2023-05-19T00:43:20.343Z,255.76
2023-05-19T00:44:20.382Z,252.04
2023-05-19T00:45:20.338Z,250.00
2023-05-19T00:46:20.415Z,250.76
2023-05-19T00:47:20.297Z,250.00
2023-05-19T00:48:20.300Z,251.04
2023-05-19T00:49:20.283Z,249.15
2023-05-19T00:50:20.292Z,248.59
2023-05-19T00:51:20.266Z,249.22
2023-05-19T00:52:20.260Z,249.29
2023-05-19T00:53:20.248Z,236.86
2023-05-19T00:54:20.209Z,240.16
2023-05-19T00:55:20.324Z,238.95
2023-05-19T00:56:20.213Z,229.52
2023-05-19T00:57:20.243Z,221.89
2023-05-19T00:58:20.223Z,209.04
2023-05-19T00:59:20.211Z,200.75
2023-05-19T01:00:20.208Z,213.72
2023-05-19T01:01:20.249Z,214.27
2023-05-19T01:02:20.239Z,220.88
2023-05-19T01:03:20.358Z,217.36
2023-05-19T01:04:20.159Z,209.80
2023-05-19T01:05:20.186Z,214.04
2023-05-19T01:06:20.213Z,211.47
2023-05-19T01:07:20.244Z,215.66
2023-05-19T01:08:20.321Z,214.06
2023-05-19T01:09:20.312Z,208.59
2023-05-19T01:10:20.413Z,211.33
2023-05-19T01:11:20.405Z,215.61
2023-05-19T01:12:20.464Z,201.36
2023-05-19T01:13:20.512Z,199.71
2023-05-19T01:14:20.550Z,205.19
2023-05-19T01:15:20.585Z,216.03
2023-05-19T01:16:20.675Z,235.94
2023-05-19T01:17:20.675Z,236.89
2023-05-19T01:18:20.670Z,227.32
2023-05-19T01:19:20.857Z,225.92
2023-05-19T01:20:20.656Z,216.25
2023-05-19T01:21:20.683Z,218.26
2023-05-19T01:22:20.698Z,216.91
2023-05-19T01:23:20.689Z,219.37
2023-05-19T01:24:20.657Z,222.54
2023-05-19T01:25:20.708Z,233.58
2023-05-19T01:26:20.692Z,244.23
2023-05-19T01:27:20.621Z,223.86
2023-05-19T01:28:20.649Z,224.26
2023-05-19T01:29:20.603Z,224.31
2023-05-19T01:30:20.649Z,226.17
2023-05-19T01:31:20.640Z,229.11
2023-05-19T01:32:20.688Z,235.71
2023-05-19T01:33:20.599Z,243.93
2023-05-19T01:34:20.606Z,243.40
2023-05-19T01:35:20.580Z,238.68
2023-05-19T01:36:20.627Z,228.16
2023-05-19T01:37:20.570Z,228.57
2023-05-19T01:38:20.535Z,227.53
2023-05-19T01:39:20.553Z,236.03
2023-05-19T01:40:20.628Z,236.48
2023-05-19T01:41:20.560Z,233.43
2023-05-19T01:42:20.545Z,236.96
2023-05-19T01:43:20.569Z,244.62
2023-05-19T01:44:20.543Z,248.31
2023-05-19T01:45:20.555Z,241.67
2023-05-19T01:46:20.505Z,242.47
2023-05-19T01:47:20.485Z,237.09
2023-05-19T01:48:20.543Z,239.21
2023-05-19T01:49:20.517Z,245.81
2023-05-19T01:50:20.511Z,240.79
2023-05-19T01:51:20.530Z,243.06
2023-05-19T01:52:20.456Z,235.65
2023-05-19T01:53:20.461Z,232.08
2023-05-19T01:54:20.433Z,228.86
2023-05-19T01:55:20.501Z,224.17
2023-05-19T01:56:20.469Z,215.68
2023-05-19T01:57:20.451Z,214.26
2023-05-19T01:58:20.442Z,213.10
2023-05-19T01:59:20.409Z,225.71
2023-05-19T02:00:21.327Z,234.96
2023-05-19T02:01:20.439Z,238.69
2023-05-19T02:02:20.449Z,237.59
2023-05-19T02:03:20.403Z,225.87
2023-05-19T02:04:20.443Z,224.50
2023-05-19T02:05:20.360Z,229.05
2023-05-19T02:06:20.424Z,239.81
2023-05-19T02:07:20.406Z,240.41
2023-05-19T02:08:20.421Z,249.06
2023-05-19T02:09:20.457Z,250.44
2023-05-19T02:10:20.487Z,249.81
2023-05-19T02:11:20.504Z,249.14
2023-05-19T02:12:20.539Z,250.00
2023-05-19T02:13:20.552Z,250.55
2023-05-19T02:14:20.615Z,250.00
2023-05-19T02:15:20.681Z,249.67
2023-05-19T02:16:20.867Z,246.61
2023-05-19T02:17:20.745Z,242.65
2023-05-19T02:18:20.801Z,246.83
2023-05-19T02:19:21.009Z,250.58
2023-05-19T02:20:20.877Z,249.57
2023-05-19T02:21:20.898Z,247.99
2023-05-19T02:22:20.874Z,238.04
2023-05-19T02:23:20.911Z,238.59
2023-05-19T02:24:20.925Z,221.91
2023-05-19T02:25:20.951Z,229.30
2023-05-19T02:26:20.957Z,244.40
2023-05-19T02:27:20.951Z,247.40
2023-05-19T02:28:21.002Z,250.93
2023-05-19T02:29:21.080Z,250.00
2023-05-19T02:30:21.083Z,250.00
2023-05-19T02:31:21.164Z,250.00
2023-05-19T02:32:21.142Z,248.99
2023-05-19T02:33:21.133Z,248.88
2023-05-19T02:34:21.192Z,246.56
2023-05-19T02:35:21.179Z,249.08
2023-05-19T02:36:21.206Z,249.02
2023-05-19T02:37:21.194Z,250.30
2023-05-19T02:38:21.169Z,247.99
2023-05-19T02:39:21.198Z,250.74
2023-05-19T02:40:21.188Z,252.05
2023-05-19T02:41:21.146Z,253.67
2023-05-19T02:42:21.155Z,253.52
2023-05-19T02:43:21.165Z,245.71
2023-05-19T02:44:21.116Z,240.53
2023-05-19T02:45:21.206Z,240.33
2023-05-19T02:46:21.150Z,250.64
2023-05-19T02:47:21.248Z,249.98
2023-05-19T02:48:21.213Z,251.56
2023-05-19T02:49:21.256Z,250.18
2023-05-19T02:50:21.223Z,239.60
2023-05-19T02:51:21.285Z,220.45
2023-05-19T02:52:21.237Z,214.42
2023-05-19T02:53:21.227Z,208.20
2023-05-19T02:54:21.231Z,206.59
2023-05-19T02:55:21.234Z,202.72
2023-05-19T02:56:21.213Z,208.29
2023-05-19T02:57:21.250Z,211.86
2023-05-19T02:58:21.180Z,213.19
2023-05-19T02:59:21.176Z,211.88
2023-05-19T03:00:21.234Z,206.30
2023-05-19T03:01:21.351Z,201.60
2023-05-19T03:02:21.298Z,196.77
2023-05-19T03:03:21.363Z,195.29
2023-05-19T03:04:21.312Z,195.81
2023-05-19T03:05:21.745Z,197.94
2023-05-19T03:06:21.424Z,197.63
2023-05-19T03:07:21.496Z,197.30
2023-05-19T03:08:21.599Z,203.21
2023-05-19T03:09:21.618Z,205.20
2023-05-19T03:10:21.670Z,197.99
2023-05-19T03:11:21.680Z,192.88
2023-05-19T03:12:21.847Z,194.24
2023-05-19T03:13:21.808Z,195.33
2023-05-19T03:14:21.863Z,195.27
2023-05-19T03:15:21.859Z,198.75
2023-05-19T03:16:22.782Z,207.18
2023-05-19T03:17:22.047Z,214.08
2023-05-19T03:18:21.985Z,201.05
2023-05-19T03:19:22.131Z,203.19
2023-05-19T03:20:22.044Z,205.59
2023-05-19T03:21:22.083Z,210.83
2023-05-19T03:22:22.162Z,216.05
2023-05-19T03:23:22.198Z,218.93
2023-05-19T03:24:22.229Z,221.74
2023-05-19T03:25:22.297Z,220.66
2023-05-19T03:26:22.294Z,225.45
2023-05-19T03:27:22.387Z,224.08
2023-05-19T03:28:22.410Z,217.69
2023-05-19T03:29:22.389Z,220.37
2023-05-19T03:30:22.508Z,219.45
2023-05-19T03:31:22.380Z,216.87
2023-05-19T03:32:22.454Z,213.09
2023-05-19T03:33:22.612Z,218.40
2023-05-19T03:34:22.410Z,224.96
2023-05-19T03:35:22.453Z,228.75
2023-05-19T03:36:22.448Z,234.02
2023-05-19T03:37:22.457Z,235.63
2023-05-19T03:38:22.534Z,237.45
2023-05-19T03:39:22.558Z,239.22
2023-05-19T03:40:22.593Z,243.76
2023-05-19T03:41:22.653Z,246.08
2023-05-19T03:42:22.677Z,251.36
2023-05-19T03:43:22.695Z,247.96
2023-05-19T03:44:22.753Z,250.00
2023-05-19T03:45:22.722Z,249.81
2023-05-19T03:46:22.846Z,249.97
2023-05-19T03:47:22.767Z,247.44
2023-05-19T03:48:22.752Z,249.56
2023-05-19T03:49:22.771Z,247.89
2023-05-19T03:50:22.777Z,247.47
2023-05-19T03:51:22.835Z,242.75
2023-05-19T03:52:22.881Z,240.84
2023-05-19T03:53:22.974Z,238.83
2023-05-19T03:54:23.027Z,233.90
2023-05-19T03:55:23.095Z,231.88
2023-05-19T03:56:23.038Z,226.23
2023-05-19T03:57:23.090Z,224.49
2023-05-19T03:58:23.100Z,224.46
2023-05-19T03:59:23.095Z,222.47
2023-05-19T04:00:23.124Z,228.97
2023-05-19T04:01:23.106Z,230.43
2023-05-19T04:02:23.216Z,232.45
2023-05-19T04:03:23.268Z,235.34
2023-05-19T04:04:23.247Z,238.43
2023-05-19T04:05:23.286Z,238.29
2023-05-19T04:06:23.300Z,244.58
2023-05-19T04:07:23.395Z,247.57
2023-05-19T04:08:23.437Z,250.03
2023-05-19T04:09:23.506Z,251.42
2023-05-19T04:10:23.571Z,247.06
2023-05-19T04:11:23.598Z,247.45
2023-05-19T04:12:23.662Z,249.90
2023-05-19T04:13:23.742Z,249.41
2023-05-19T04:14:23.806Z,249.20
2023-05-19T04:15:23.850Z,254.00
2023-05-19T04:16:24.051Z,258.19
2023-05-19T04:17:23.982Z,253.17
2023-05-19T04:18:24.474Z,250.00
2023-05-19T04:19:24.174Z,250.00
2023-05-19T04:20:24.189Z,247.61
2023-05-19T04:21:24.227Z,240.51
2023-05-19T04:22:24.267Z,229.47
2023-05-19T04:23:24.307Z,224.12
2023-05-19T04:24:24.375Z,227.55
2023-05-19T04:25:24.438Z,237.74
2023-05-19T04:26:25.256Z,244.75
2023-05-19T04:27:24.494Z,242.82
2023-05-19T04:28:24.518Z,241.06
2023-05-19T04:29:24.529Z,235.44
2023-05-19T04:30:24.546Z,229.29
2023-05-19T04:31:25.278Z,227.46
2023-05-19T04:32:24.593Z,229.71
2023-05-19T04:33:24.599Z,226.80
2023-05-19T04:34:24.580Z,210.00
2023-05-19T04:35:24.634Z,200.28
2023-05-19T04:36:24.663Z,203.15
2023-05-19T04:37:24.662Z,205.78
2023-05-19T04:38:24.712Z,191.38
2023-05-19T04:39:24.733Z,245.12
2023-05-19T04:40:24.743Z,218.24
2023-05-19T04:41:24.780Z,192.09
2023-05-19T04:42:24.842Z,173.25
2023-05-19T04:43:24.794Z,165.60
2023-05-19T04:44:24.792Z,158.47
2023-05-19T04:45:24.814Z,160.75
2023-05-19T04:46:24.860Z,162.66
2023-05-19T04:47:24.866Z,158.09
2023-05-19T04:48:24.847Z,159.26
2023-05-19T04:49:24.862Z,164.27
2023-05-19T04:50:24.924Z,169.09
2023-05-19T04:51:24.933Z,175.06
2023-05-19T04:52:24.964Z,173.02
2023-05-19T04:53:24.948Z,173.85
2023-05-19T04:54:25.004Z,180.40
2023-05-19T04:55:25.130Z,173.57
2023-05-19T04:56:25.080Z,174.97
2023-05-19T04:57:25.076Z,183.20
2023-05-19T04:58:25.091Z,186.14
2023-05-19T04:59:25.132Z,192.33
2023-05-19T05:01:52.915Z,25.00
2023-05-19T05:02:45.179Z,25.00
2023-05-19T05:03:45.263Z,25.00
2023-05-19T05:04:45.152Z,25.00
2023-05-19T05:05:45.168Z,25.00
2023-05-19T05:06:45.119Z,25.00
2023-05-19T05:07:45.104Z,60.97
2023-05-19T05:08:45.160Z,120.34
2023-05-19T05:09:45.165Z,124.49
2023-05-19T05:10:45.141Z,58.41
2023-05-19T05:11:45.246Z,0.00
2023-05-19T05:12:45.112Z,0.00
2023-05-19T05:13:45.102Z,24.66
2023-05-19T05:14:45.121Z,6.75
2023-05-19T05:15:45.142Z,7.15
2023-05-19T05:16:45.212Z,25.00
2023-05-19T05:17:45.141Z,22.88
2023-05-19T05:18:45.218Z,11.93
2023-05-19T05:19:45.034Z,25.00
2023-05-19T05:20:45.038Z,34.31
2023-05-19T05:21:45.082Z,61.74
2023-05-19T05:22:45.094Z,94.32
2023-05-19T05:23:45.122Z,101.77
2023-05-19T05:24:45.161Z,60.17
2023-05-19T05:25:45.241Z,28.31
2023-05-19T05:26:45.291Z,26.49
2023-05-19T05:27:45.321Z,28.33
2023-05-19T05:28:45.412Z,28.01
2023-05-19T05:29:45.452Z,21.42
2023-05-19T05:30:45.433Z,26.96
2023-05-19T05:31:45.470Z,36.21
2023-05-19T05:32:45.587Z,33.90
2023-05-19T05:33:45.587Z,17.27
2023-05-19T05:34:45.507Z,0.00
2023-05-19T05:35:45.555Z,18.27
2023-05-19T05:36:45.596Z,31.66
2023-05-19T05:37:45.709Z,53.59
2023-05-19T05:38:45.708Z,55.62
2023-05-19T05:39:45.782Z,94.97
2023-05-19T05:40:45.789Z,135.97
2023-05-19T05:41:45.843Z,165.33
2023-05-19T05:42:45.848Z,181.43
2023-05-19T05:43:45.855Z,181.50
2023-05-19T05:44:45.874Z,204.45
2023-05-19T05:45:46.025Z,250.22
2023-05-19T05:46:54.766Z,256.73
2023-05-19T05:47:46.381Z,257.19
2023-05-19T05:48:46.110Z,261.81
2023-05-19T05:49:46.054Z,258.26
2023-05-19T05:50:46.063Z,263.02
2023-05-19T05:51:58.001Z,276.70
2023-05-19T05:52:46.072Z,259.21
2023-05-19T05:53:46.075Z,260.16
2023-05-19T05:54:45.988Z,269.43
2023-05-19T05:55:46.013Z,259.68
2023-05-19T05:56:46.026Z,259.47
2023-05-19T05:57:46.028Z,259.34
2023-05-19T05:58:46.109Z,262.53
2023-05-19T05:59:45.953Z,283.97
2023-05-19T06:00:45.956Z,262.29
2023-05-19T06:01:46.035Z,278.91
2023-05-19T06:02:46.057Z,310.03
2023-05-19T06:03:46.081Z,262.68
2023-05-19T06:04:46.076Z,263.04
2023-05-19T06:05:46.907Z,264.61
2023-05-19T06:06:46.079Z,291.93
2023-05-19T06:07:45.976Z,338.73
2023-05-19T06:08:45.943Z,264.62
2023-05-19T06:09:45.972Z,291.91
2023-05-19T06:10:47.338Z,338.68
2023-05-19T06:11:46.008Z,404.94
2023-05-19T06:12:45.890Z,485.62
2023-05-19T06:13:46.034Z,406.83
2023-05-19T06:14:46.048Z,331.20
2023-05-19T06:15:46.061Z,331.22
2023-05-19T06:16:46.018Z,331.94
2023-05-19T06:17:45.984Z,341.52
2023-05-19T06:18:46.604Z,388.11
2023-05-19T06:19:45.914Z,430.96
2023-05-19T06:20:45.854Z,334.37
2023-05-19T06:21:45.884Z,339.94
2023-05-19T06:22:45.988Z,347.44
2023-05-19T06:23:45.803Z,332.78
2023-05-19T06:24:45.932Z,332.21
2023-05-19T06:25:45.891Z,336.53
2023-05-19T06:26:46.435Z,340.59
2023-05-19T06:27:46.075Z,331.68
2023-05-19T06:28:46.133Z,333.03
2023-05-19T06:29:46.109Z,333.15
2023-05-19T06:30:46.239Z,318.41
2023-05-19T06:31:46.548Z,326.40
2023-05-19T06:32:46.344Z,315.85
2023-05-19T06:33:48.281Z,294.07
2023-05-19T06:34:46.501Z,274.24
2023-05-19T06:35:46.505Z,248.97
2023-05-19T06:36:46.610Z,200.60
2023-05-19T06:37:46.610Z,170.52
2023-05-19T06:38:46.625Z,159.92
2023-05-19T06:39:46.622Z,122.95
2023-05-19T06:40:47.585Z,110.94
2023-05-19T06:41:46.558Z,97.43
2023-05-19T06:42:46.570Z,82.80
2023-05-19T06:43:46.587Z,79.32
2023-05-19T06:44:46.562Z,87.32
2023-05-19T06:45:46.592Z,88.22
2023-05-19T06:46:46.611Z,92.85
2023-05-19T06:47:47.468Z,81.25
2023-05-19T06:48:46.652Z,127.63
2023-05-19T06:49:46.582Z,138.31
2023-05-19T06:50:47.405Z,163.28
2023-05-19T06:51:48.125Z,107.33
2023-05-19T06:52:46.474Z,57.34
2023-05-19T06:53:46.488Z,30.95
2023-05-19T06:54:46.425Z,53.55
2023-05-19T06:55:58.112Z,42.25
2023-05-19T06:56:49.105Z,52.73
2023-05-19T06:57:47.882Z,69.78
2023-05-19T06:58:46.580Z,73.16
2023-05-19T06:59:46.551Z,77.57
2023-05-19T07:00:46.357Z,66.05
2023-05-19T07:01:46.466Z,24.40
2023-05-19T07:02:46.583Z,3.16
2023-05-19T07:03:46.544Z,3.64
2023-05-19T07:04:46.482Z,9.78
2023-05-19T07:05:46.488Z,20.95
2023-05-19T07:06:46.422Z,22.65
2023-05-19T07:07:46.487Z,0.85
2023-05-19T07:08:46.302Z,0.00
2023-05-19T07:09:46.417Z,0.00
2023-05-19T07:10:46.423Z,0.00
2023-05-19T07:11:46.404Z,0.00
2023-05-19T07:12:46.427Z,11.04
2023-05-19T07:13:46.423Z,1.24
2023-05-19T07:14:46.344Z,29.42
2023-05-19T07:15:46.262Z,45.06
2023-05-19T07:16:46.661Z,45.93
2023-05-19T07:17:46.423Z,20.02
2023-05-19T07:18:46.299Z,0.00
2023-05-19T07:19:46.256Z,0.00
2023-05-19T07:20:46.270Z,0.00
2023-05-19T07:21:46.877Z,0.00
2023-05-19T07:22:46.533Z,0.00
2023-05-19T07:23:46.410Z,3.06
2023-05-19T07:24:46.403Z,9.28
2023-05-19T07:25:46.427Z,0.00
2023-05-19T07:26:46.427Z,0.00
2023-05-19T07:27:46.494Z,0.00
2023-05-19T07:28:46.421Z,0.00
2023-05-19T07:29:46.343Z,32.17
2023-05-19T07:30:46.391Z,0.00
2023-05-19T07:31:46.382Z,0.00
2023-05-19T07:32:46.396Z,0.00
2023-05-19T07:33:46.392Z,0.00
2023-05-19T07:34:46.469Z,0.00
2023-05-19T07:35:46.361Z,0.00
2023-05-19T07:36:46.376Z,0.00
2023-05-19T07:37:46.319Z,0.00
2023-05-19T07:38:46.393Z,0.00
2023-05-19T07:39:46.380Z,0.00
2023-05-19T07:40:46.348Z,0.00
2023-05-19T07:41:46.355Z,0.00
2023-05-19T07:42:46.354Z,0.00
2023-05-19T07:43:46.359Z,0.00
2023-05-19T07:44:46.356Z,0.00
2023-05-19T07:45:46.442Z,0.00
2023-05-19T07:46:46.380Z,0.00
2023-05-19T07:47:46.408Z,0.00
2023-05-19T07:48:46.331Z,0.00
2023-05-19T07:49:46.337Z,0.00
2023-05-19T07:50:46.363Z,0.00
2023-05-19T07:51:46.302Z,0.00
2023-05-19T07:52:46.933Z,0.00
2023-05-19T07:53:46.207Z,0.00
2023-05-19T07:54:46.217Z,0.00
2023-05-19T07:55:46.210Z,0.00
2023-05-19T07:56:46.239Z,0.00
2023-05-19T07:57:46.294Z,0.00
2023-05-19T07:58:46.240Z,0.00
2023-05-19T07:59:46.242Z,0.00
2023-05-19T08:00:46.341Z,0.00
2023-05-19T08:01:46.569Z,0.00
2023-05-19T08:02:46.237Z,0.00
2023-05-19T08:03:46.239Z,0.00
2023-05-19T08:04:46.289Z,0.00
2023-05-19T08:05:46.894Z,0.00
2023-05-19T08:06:46.260Z,0.00
2023-05-19T08:07:46.190Z,0.00
2023-05-19T08:08:46.204Z,0.00
2023-05-19T08:09:46.218Z,0.00
2023-05-19T08:10:46.919Z,0.00
2023-05-19T08:11:46.274Z,0.00
2023-05-19T08:12:46.131Z,0.00
2023-05-19T08:13:46.108Z,0.00
2023-05-19T08:14:46.155Z,0.00
2023-05-19T08:15:46.091Z,0.00
2023-05-19T08:16:46.134Z,0.00
2023-05-19T08:17:46.118Z,0.00
2023-05-19T08:18:46.176Z,0.00
2023-05-19T08:19:46.116Z,0.00
2023-05-19T08:20:46.266Z,0.00
2023-05-19T08:21:46.777Z,0.00
2023-05-19T08:22:46.095Z,0.00
2023-05-19T08:23:46.185Z,0.00
2023-05-19T08:24:46.119Z,0.00
2023-05-19T08:25:46.053Z,0.00
2023-05-19T08:26:46.185Z,0.00
2023-05-19T08:27:46.109Z,0.00
2023-05-19T08:28:46.096Z,0.00
2023-05-19T08:29:46.130Z,0.00
2023-05-19T08:30:46.050Z,0.00
2023-05-19T08:31:46.102Z,0.00
2023-05-19T08:32:46.031Z,0.00
2023-05-19T08:33:46.061Z,0.00
2023-05-19T08:34:46.059Z,0.00
2023-05-19T08:35:45.983Z,0.00
2023-05-19T08:36:46.079Z,0.00
2023-05-19T08:37:47.030Z,0.00
2023-05-19T08:38:45.921Z,0.00
2023-05-19T08:39:45.993Z,0.00
2023-05-19T08:40:45.937Z,0.00
2023-05-19T08:41:46.045Z,0.00
2023-05-19T08:42:45.953Z,0.00
2023-05-19T08:43:45.991Z,0.00
2023-05-19T08:44:45.973Z,0.00
2023-05-19T08:45:46.093Z,0.00
2023-05-19T08:46:46.036Z,0.00
2023-05-19T08:47:46.005Z,0.00
2023-05-19T08:48:45.867Z,0.00
2023-05-19T08:49:45.966Z,0.00
2023-05-19T08:50:45.849Z,0.00
2023-05-19T08:51:46.406Z,0.00
2023-05-19T08:52:48.872Z,0.00
2023-05-19T08:53:45.998Z,0.00
2023-05-19T08:54:45.896Z,0.00
2023-05-19T08:55:45.813Z,0.00
2023-05-19T08:56:46.012Z,0.00
2023-05-19T08:57:45.848Z,0.00
2023-05-19T08:58:45.855Z,0.00
2023-05-19T08:59:45.915Z,0.00
2023-05-19T09:00:45.879Z,0.00
2023-05-19T09:01:45.954Z,0.00
2023-05-19T09:02:55.146Z,0.00
2023-05-19T09:03:46.888Z,0.00
2023-05-19T09:04:45.803Z,0.00
2023-05-19T09:05:45.829Z,0.00
2023-05-19T09:06:45.993Z,0.00
2023-05-19T09:07:45.986Z,0.00
2023-05-19T09:08:45.880Z,0.00
2023-05-19T09:09:45.756Z,0.00
2023-05-19T09:10:46.289Z,0.00
2023-05-19T09:11:46.449Z,0.00
2023-05-19T09:12:46.008Z,0.00
2023-05-19T09:13:45.796Z,4.12
2023-05-19T09:14:45.754Z,0.00
2023-05-19T09:15:45.831Z,0.00
2023-05-19T09:16:45.890Z,0.00
2023-05-19T09:17:45.973Z,0.00
2023-05-19T09:18:46.022Z,0.00
2023-05-19T09:19:45.947Z,0.00
2023-05-19T09:20:46.005Z,0.00
2023-05-19T09:21:45.989Z,0.00
2023-05-19T09:22:45.990Z,0.00
2023-05-19T09:23:46.069Z,0.00
2023-05-19T09:24:46.097Z,0.00
2023-05-19T09:25:46.222Z,0.00
2023-05-19T09:26:46.228Z,13.81
2023-05-19T09:27:46.224Z,30.54
2023-05-19T09:28:46.318Z,52.62
2023-05-19T09:29:46.344Z,23.94
2023-05-19T09:30:46.398Z,23.90
2023-05-19T09:31:46.513Z,11.29
2023-05-19T09:32:47.567Z,0.00
2023-05-19T09:33:46.476Z,0.00
2023-05-19T09:34:46.486Z,0.00
2023-05-19T09:35:46.400Z,0.00
2023-05-19T09:36:46.388Z,0.00
2023-05-19T09:37:46.382Z,0.00
2023-05-19T09:38:46.393Z,0.00
2023-05-19T09:39:46.394Z,24.32
2023-05-19T09:40:46.395Z,26.21
2023-05-19T09:41:46.919Z,18.74
2023-05-19T09:42:46.327Z,23.68
2023-05-19T09:43:46.348Z,28.96
2023-05-19T09:44:46.415Z,16.61
2023-05-19T09:45:46.467Z,19.64
2023-05-19T09:46:46.532Z,25.85
2023-05-19T09:47:46.579Z,26.28
2023-05-19T09:48:46.564Z,44.10
2023-05-19T09:49:46.595Z,46.63
2023-05-19T09:50:46.601Z,35.76
2023-05-19T09:51:46.707Z,30.82
2023-05-19T09:52:46.698Z,30.09
2023-05-19T09:53:46.709Z,20.23
2023-05-19T09:54:46.718Z,18.54
2023-05-19T09:55:46.818Z,25.00
2023-05-19T09:56:46.830Z,34.66
2023-05-19T09:57:47.056Z,58.50
2023-05-19T09:58:46.863Z,60.64
2023-05-19T09:59:46.937Z,60.32
2023-05-19T10:00:46.966Z,59.30
2023-05-19T10:01:47.125Z,36.87
2023-05-19T10:02:47.499Z,36.59
2023-05-19T10:03:47.093Z,33.99
2023-05-19T10:04:47.087Z,28.55
2023-05-19T10:05:47.098Z,24.14
2023-05-19T10:06:47.110Z,27.24
2023-05-19T10:07:47.212Z,37.03
2023-05-19T10:08:47.207Z,44.07
2023-05-19T10:09:47.227Z,44.02
2023-05-19T10:10:47.238Z,56.16
2023-05-19T10:11:47.259Z,45.05
2023-05-19T10:12:47.341Z,47.77
2023-05-19T10:13:47.355Z,46.37
2023-05-19T10:14:47.349Z,49.77
2023-05-19T10:15:58.113Z,49.63
2023-05-19T10:16:47.403Z,48.07
2023-05-19T10:17:47.412Z,51.33
2023-05-19T10:18:47.425Z,63.94
2023-05-19T10:19:47.345Z,67.73
2023-05-19T10:20:47.326Z,49.32
2023-05-19T10:21:47.296Z,45.96
2023-05-19T10:22:47.326Z,49.07
2023-05-19T10:23:47.334Z,37.97
2023-05-19T10:24:47.340Z,40.04
2023-05-19T10:25:47.322Z,52.23
2023-05-19T10:26:47.341Z,60.90
2023-05-19T10:27:47.334Z,64.06
2023-05-19T10:28:47.355Z,77.01
2023-05-19T10:29:47.370Z,71.81
2023-05-19T10:30:47.401Z,59.95
2023-05-19T10:31:47.485Z,44.64
2023-05-19T10:32:47.588Z,46.29
2023-05-19T10:33:47.490Z,49.48
2023-05-19T10:34:47.512Z,63.32
2023-05-19T10:35:47.491Z,81.87
2023-05-19T10:36:47.601Z,83.79
2023-05-19T10:37:47.684Z,72.62
2023-05-19T10:38:47.670Z,83.56
2023-05-19T10:39:47.636Z,83.73
2023-05-19T10:40:47.668Z,89.66
2023-05-19T10:41:47.883Z,94.01
2023-05-19T10:42:47.724Z,84.26
2023-05-19T10:43:47.688Z,86.75
2023-05-19T10:44:47.664Z,84.31
2023-05-19T10:45:47.677Z,85.61
2023-05-19T10:46:47.725Z,89.86
2023-05-19T10:47:47.746Z,93.50
2023-05-19T10:48:47.719Z,91.56
2023-05-19T10:49:47.619Z,83.96
2023-05-19T10:50:47.637Z,83.85
2023-05-19T10:51:47.624Z,100.75
2023-05-19T10:52:47.724Z,104.74
2023-05-19T10:53:47.749Z,103.64
2023-05-19T10:54:47.726Z,98.41
2023-05-19T10:55:47.749Z,112.48
2023-05-19T10:56:47.773Z,138.80
2023-05-19T10:57:47.976Z,163.40
2023-05-19T10:58:47.885Z,142.04
2023-05-19T10:59:47.974Z,127.25
2023-05-19T11:00:47.999Z,116.85
2023-05-19T11:01:48.027Z,105.62
2023-05-19T11:02:48.139Z,89.12
2023-05-19T11:03:48.170Z,88.86
2023-05-19T11:04:50.270Z,85.28
2023-05-19T11:05:48.117Z,94.37
2023-05-19T11:06:48.126Z,94.12
2023-05-19T11:07:48.113Z,93.68
2023-05-19T11:08:48.047Z,116.20
2023-05-19T11:09:48.066Z,82.37
2023-05-19T11:10:48.177Z,84.10
2023-05-19T11:11:48.105Z,81.06
2023-05-19T11:12:48.079Z,75.17
2023-05-19T11:13:48.074Z,77.72
2023-05-19T11:14:48.088Z,77.91
2023-05-19T11:15:48.009Z,82.82
2023-05-19T11:16:48.082Z,80.93
2023-05-19T11:17:48.123Z,65.66
2023-05-19T11:18:48.041Z,56.31
2023-05-19T11:19:48.033Z,56.55
2023-05-19T11:20:48.054Z,58.93
2023-05-19T11:21:48.067Z,69.75
2023-05-19T11:22:48.033Z,83.50
2023-05-19T11:23:48.031Z,91.08
2023-05-19T11:24:47.961Z,99.26
2023-05-19T11:25:48.043Z,103.03
2023-05-19T11:26:47.978Z,101.59
2023-05-19T11:27:47.972Z,99.85
2023-05-19T11:28:47.981Z,95.49
2023-05-19T11:29:47.981Z,92.78
2023-05-19T11:30:47.893Z,89.41
2023-05-19T11:31:47.959Z,92.76
2023-05-19T11:32:48.055Z,95.63
2023-05-19T11:33:47.916Z,96.06
2023-05-19T11:34:48.003Z,93.40
2023-05-19T11:35:47.931Z,88.85
2023-05-19T11:36:47.932Z,88.87
2023-05-19T11:37:47.948Z,98.64
2023-05-19T11:38:47.846Z,93.33
2023-05-19T11:39:47.975Z,91.63
2023-05-19T11:40:47.833Z,90.58
2023-05-19T11:41:47.890Z,95.32
2023-05-19T11:42:47.900Z,79.38
2023-05-19T11:43:47.874Z,86.09
2023-05-19T11:44:47.914Z,85.51
2023-05-19T11:45:47.949Z,83.04
2023-05-19T11:46:48.095Z,74.09
2023-05-19T11:48:01.249Z,82.25
2023-05-19T11:48:48.835Z,82.34
2023-05-19T11:49:47.827Z,76.05
2023-05-19T11:50:47.831Z,72.02
2023-05-19T11:51:47.850Z,77.89
2023-05-19T11:52:47.845Z,79.74
2023-05-19T11:53:47.835Z,82.40
2023-05-19T11:54:47.754Z,83.40
2023-05-19T11:55:48.095Z,96.86
2023-05-19T11:56:47.771Z,85.24
2023-05-19T11:58:02.583Z,77.98
2023-05-19T11:58:48.816Z,78.50
2023-05-19T11:59:47.774Z,79.83
2023-05-19T12:00:48.182Z,78.52
2023-05-19T12:01:47.689Z,71.25
2023-05-19T12:02:47.816Z,69.59
2023-05-19T12:03:47.898Z,69.85
2023-05-19T12:04:47.712Z,58.07
2023-05-19T12:05:48.239Z,51.85
2023-05-19T12:06:47.770Z,55.49
2023-05-19T12:07:47.734Z,61.86
2023-05-19T12:08:47.726Z,71.89
2023-05-19T12:09:47.810Z,72.03
2023-05-19T12:10:47.853Z,131.37
2023-05-19T12:11:47.861Z,130.03
2023-05-19T12:12:47.886Z,87.44
2023-05-19T12:13:47.975Z,55.38
2023-05-19T12:14:47.974Z,44.02
2023-05-19T12:15:48.045Z,44.87
2023-05-19T12:16:48.176Z,51.90
2023-05-19T12:17:48.230Z,67.18
2023-05-19T12:18:48.228Z,64.68
2023-05-19T12:19:48.231Z,40.97
2023-05-19T12:20:48.249Z,25.00
2023-05-19T12:21:48.282Z,27.46
2023-05-19T12:22:48.351Z,14.29
2023-05-19T12:23:48.452Z,21.55
2023-05-19T12:24:48.457Z,25.84
2023-05-19T12:25:48.478Z,44.53
2023-05-19T12:26:48.485Z,44.16
2023-05-19T12:27:48.537Z,66.35
2023-05-19T12:28:48.502Z,66.31
2023-05-19T12:29:48.593Z,43.36
2023-05-19T12:30:48.601Z,37.78
2023-05-19T12:31:48.622Z,36.36
2023-05-19T12:32:48.669Z,35.88
2023-05-19T12:33:48.728Z,33.72
2023-05-19T12:34:48.682Z,30.64
2023-05-19T12:35:48.744Z,33.24
2023-05-19T12:36:48.801Z,38.38
2023-05-19T12:37:48.862Z,36.61
2023-05-19T12:38:48.863Z,26.20
2023-05-19T12:39:48.830Z,18.08
2023-05-19T12:40:48.917Z,18.69
2023-05-19T12:41:48.887Z,27.39
2023-05-19T12:42:48.965Z,33.09
2023-05-19T12:43:48.917Z,27.15
2023-05-19T12:44:49.025Z,25.27
2023-05-19T12:45:48.987Z,29.86
2023-05-19T12:46:49.129Z,39.94